Time;durP1;ratioP1;P1;durP2;ratioP2;P2;SDS_P1;SDS_P2;PMS_P1;PMS_P2;Temp;Humidity;BMP_temperature;BMP_pressure;BME280_temperature;BME280_humidity;BME280_pressure;Samples;Min_cycle;Max_cycle;Signal;HPM_P1;HPM_P2
2023/03/06 00:00:18;;;;;;;19.85;7.93;;;;;;;2.45;66.87;99652.13;5038760;28;20057;-58
2023/03/06 00:02:45;;;;;;;20.10;8.45;;;;;;;2.41;66.14;99643.53;5036480;28;20057;-57
2023/03/06 00:05:13;;;;;;;21.70;8.07;;;;;;;2.39;66.70;99644.28;5038962;28;20125;-57
2023/03/06 00:07:40;;;;;;;22.25;8.18;;;;;;;2.37;66.19;99645.97;5034657;28;21282;-56
2023/03/06 00:10:11;;;;;;;14.60;6.60;;;;;;;2.35;66.53;99652.72;5033784;28;20119;-57
2023/03/06 00:12:37;;;;;;;;;;;;;;;2.27;67.66;99650.81;5038683;28;20108;-55
2023/03/06 00:15:04;;;;;;;15.68;7.10;;;;;;;2.28;67.75;99647.47;5044789;28;19959;-58
2023/03/06 00:17:31;;;;;;;20.20;7.25;;;;;;;2.27;67.23;99645.72;5038461;28;20092;-57
2023/03/06 00:19:57;;;;;;;16.33;7.30;;;;;;;2.25;66.65;99637.16;5036749;28;20049;-57
2023/03/06 00:22:25;;;;;;;20.25;6.82;;;;;;;2.24;67.65;99632.00;5037161;28;20063;-58
2023/03/06 00:24:52;;;;;;;15.80;6.90;;;;;;;2.22;67.29;99639.63;5039284;28;20048;-57
2023/03/06 00:27:20;;;;;;;13.98;7.32;;;;;;;2.19;66.65;99626.78;5040428;28;20526;-58
2023/03/06 00:29:48;;;;;;;12.13;5.35;;;;;;;2.16;66.78;99631.84;5038830;28;20528;-56
2023/03/06 00:32:15;;;;;;;19.33;7.28;;;;;;;2.13;66.60;99621.53;5041042;28;20140;-57
2023/03/06 00:34:41;;;;;;;13.63;6.97;;;;;;;2.11;66.97;99628.28;5055551;28;20041;-57
2023/03/06 00:37:08;;;;;;;13.52;6.75;;;;;;;2.10;66.59;99624.00;5058988;28;20041;-58
2023/03/06 00:39:34;;;;;;;15.13;5.90;;;;;;;2.07;68.33;99623.91;5056474;28;20186;-59
2023/03/06 00:42:01;;;;;;;20.60;6.25;;;;;;;2.05;67.25;99614.53;5057885;28;20053;-57
2023/03/06 00:44:30;;;;;;;16.90;7.07;;;;;;;2.03;67.75;99611.06;5056249;28;20084;-57
2023/03/06 00:46:57;;;;;;;15.25;6.45;;;;;;;2.01;67.07;99607.63;5048874;28;20132;-57
2023/03/06 00:49:23;;;;;;;14.10;6.55;;;;;;;1.98;67.50;99602.44;5039490;28;20071;-57
2023/03/06 00:51:50;;;;;;;13.85;6.50;;;;;;;1.98;67.29;99602.44;5041401;28;20072;-59
2023/03/06 00:54:17;;;;;;;13.13;6.80;;;;;;;1.97;67.33;99600.72;5042130;28;20142;-55
2023/03/06 00:56:43;;;;;;;15.40;7.35;;;;;;;1.96;68.09;99601.50;5043029;28;20072;-57
2023/03/06 00:59:10;;;;;;;15.95;6.43;;;;;;;1.96;68.16;99596.41;5042263;28;20049;-56
2023/03/06 01:01:37;;;;;;;15.18;7.35;;;;;;;1.97;67.85;99595.59;5043465;28;20550;-58
2023/03/06 01:04:03;;;;;;;13.85;6.30;;;;;;;1.97;68.59;99595.59;5038553;28;20056;-58
2023/03/06 01:06:30;;;;;;;16.58;6.47;;;;;;;2.00;68.17;99589.69;5039060;28;20172;-58
2023/03/06 01:08:57;;;;;;;15.52;6.78;;;;;;;2.03;68.81;99593.19;5037422;28;20115;-57
2023/03/06 01:11:23;;;;;;;16.77;6.22;;;;;;;2.05;68.28;99586.44;5039461;28;20045;-58
2023/03/06 01:13:50;;;;;;;15.43;6.90;;;;;;;2.10;67.23;99590.78;5037932;28;20068;-58
2023/03/06 01:16:18;;;;;;;16.77;6.50;;;;;;;2.12;68.92;99590.00;5040938;28;20068;-57
2023/03/06 01:18:45;;;;;;;16.75;6.35;;;;;;;2.15;69.07;99574.75;5045188;28;20471;-58
2023/03/06 01:21:12;;;;;;;14.68;6.20;;;;;;;2.20;68.19;99585.09;5039693;28;20136;-58
2023/03/06 01:23:40;;;;;;;16.88;6.82;;;;;;;2.22;68.80;99580.84;5040288;28;20053;-58
2023/03/06 01:26:09;;;;;;;15.23;7.95;;;;;;;2.26;68.09;99580.09;5038831;28;20052;-58
2023/03/06 01:28:38;;;;;;;16.05;7.55;;;;;;;2.29;68.69;99576.75;5040146;28;20128;-58
2023/03/06 01:31:07;;;;;;;19.00;7.28;;;;;;;2.30;68.84;99574.22;5037194;28;20072;-57
2023/03/06 01:33:36;;;;;;;17.83;7.35;;;;;;;2.30;67.79;99564.00;5038411;28;20057;-59
2023/03/06 01:36:08;;;;;;;16.15;6.97;;;;;;;2.32;68.50;99564.03;5044789;28;20120;-58
2023/03/06 01:38:36;;;;;;;15.13;6.97;;;;;;;2.34;67.57;99559.84;5044519;28;20481;-56
2023/03/06 01:41:05;;;;;;;14.90;7.50;;;;;;;2.34;68.14;99559.84;5037519;28;20120;-58
2023/03/06 01:43:36;;;;;;;15.80;6.97;;;;;;;2.37;68.78;99564.16;5034902;28;20515;-58
2023/03/06 01:46:41;;;;;;;15.65;6.55;;;;;;;2.36;69.21;99555.63;5042999;28;20044;-56
2023/03/06 01:49:32;;;;;;;12.23;6.40;;;;;;;2.36;68.84;99549.66;5040991;28;20102;-58
2023/03/06 01:52:10;;;;;;;14.95;7.63;;;;;;;2.38;68.62;99546.31;5057874;28;20049;-58
2023/03/06 01:57:21;;;;;;;15.85;8.65;;;;;;;2.41;68.77;99542.94;5102008;27;20381;-58
2023/03/06 01:59:53;;;;;;;15.55;8.60;;;;;;;2.41;69.52;99540.41;5039464;28;20141;-58
2023/03/06 02:02:20;;;;;;;17.17;9.32;;;;;;;2.43;67.97;99541.28;5041048;28;20106;-56
2023/03/06 02:04:47;;;;;;;17.75;7.90;;;;;;;2.43;69.19;99533.59;5040990;28;20473;-58
2023/03/06 02:07:17;;;;;;;15.10;7.30;;;;;;;2.45;68.41;99529.41;5065923;28;20444;-57
2023/03/06 02:09:44;;;;;;;19.52;9.48;;;;;;;2.44;68.44;99514.91;5079034;28;20504;-56
2023/03/06 02:12:13;;;;;;;15.52;8.55;;;;;;;2.47;68.41;99511.56;5081137;28;20508;-58
2023/03/06 02:14:40;;;;;;;17.50;9.45;;;;;;;2.43;68.78;99505.50;5078937;28;20052;-56
2023/03/06 02:17:10;;;;;;;19.38;9.85;;;;;;;2.40;69.47;99498.63;5077955;28;20136;-56
2023/03/06 02:22:21;;;;;;;13.68;6.55;;;;;;;2.40;69.38;99497.78;5042950;27;20414;-58
2023/03/06 02:27:26;;;;;;;19.83;9.57;;;;;;;2.42;68.44;99480.75;5026570;28;20411;-55
2023/03/06 02:29:53;;;;;;;16.42;9.65;;;;;;;2.41;69.88;99468.81;5000776;28;20482;-59
2023/03/06 02:32:19;;;;;;;19.35;9.88;;;;;;;2.39;69.62;99466.22;5002549;28;20112;-58
2023/03/06 02:37:24;;;;;;;17.05;8.38;;;;;;;2.38;70.05;99456.84;5065621;27;20760;-58
2023/03/06 02:39:58;;;;;;;22.10;8.90;;;;;;;2.38;69.63;99450.84;5037587;28;20401;-58
2023/03/06 02:42:27;;;;;;;18.48;7.07;;;;;;;2.38;68.96;99448.31;5039645;28;20073;-57
2023/03/06 02:44:58;;;;;;;17.73;7.80;;;;;;;2.38;69.56;99438.09;5033385;28;20057;-57
2023/03/06 02:47:24;;;;;;;20.67;8.40;;;;;;;2.37;69.18;99441.47;5035476;28;20095;-58
2023/03/06 02:49:51;;;;;;;18.73;9.10;;;;;;;2.38;70.00;99438.09;5035887;28;20525;-58
2023/03/06 02:52:17;;;;;;;18.58;8.68;;;;;;;2.40;69.97;99441.53;5032978;28;20741;-58
2023/03/06 02:54:44;;;;;;;18.55;7.80;;;;;;;2.41;69.39;99443.25;5037701;28;20110;-59
2023/03/06 02:57:11;;;;;;;18.52;7.85;;;;;;;2.43;69.57;99446.69;5033411;28;20103;-56
2023/03/06 02:59:38;;;;;;;18.35;7.60;;;;;;;2.44;69.16;99438.22;5040926;28;20083;-58
2023/03/06 03:02:05;;;;;;;19.65;8.57;;;;;;;2.45;69.35;99434.81;5038916;28;20524;-58
2023/03/06 03:04:32;;;;;;;16.73;7.97;;;;;;;2.43;69.79;99429.69;5041291;28;20048;-55
2023/03/06 03:06:58;;;;;;;18.48;7.75;;;;;;;2.45;70.16;99429.72;5038854;28;20608;-57
2023/03/06 03:09:25;;;;;;;17.25;7.68;;;;;;;2.44;69.90;99418.63;5039442;28;20091;-58
2023/03/06 03:11:52;;;;;;;17.85;8.10;;;;;;;2.43;69.84;99422.00;5049195;28;20044;-57
2023/03/06 03:14:18;;;;;;;17.10;7.82;;;;;;;2.41;69.29;99412.59;5055954;28;20053;-56
2023/03/06 03:16:45;;;;;;;16.42;7.25;;;;;;;2.40;70.77;99410.88;5055725;28;20045;-58
2023/03/06 03:19:12;;;;;;;17.25;7.60;;;;;;;2.40;69.25;99408.31;5055079;28;20041;-56
2023/03/06 03:21:39;;;;;;;21.27;7.82;;;;;;;2.39;69.78;99398.91;5052962;28;20072;-54
2023/03/06 03:24:07;;;;;;;17.83;7.80;;;;;;;2.34;69.87;99395.41;5058473;28;20094;-56
2023/03/06 03:26:33;;;;;;;16.95;6.70;;;;;;;2.31;71.04;99399.63;5054628;28;20522;-56
2023/03/06 03:29:00;;;;;;;14.90;7.35;;;;;;;2.31;70.69;99391.97;5060587;28;20068;-56
2023/03/06 03:31:27;;;;;;;14.48;6.72;;;;;;;2.33;70.68;99394.53;5058206;28;20702;-57
2023/03/06 03:33:53;;;;;;;12.80;6.22;;;;;;;2.33;71.67;99384.31;5069965;28;20724;-57
2023/03/06 03:36:20;;;;;;;12.88;6.35;;;;;;;2.36;69.95;99388.63;5063316;28;20132;-56
2023/03/06 03:38:47;;;;;;;15.02;6.38;;;;;;;2.38;70.24;99381.84;5080940;28;20052;-58
2023/03/06 03:41:13;;;;;;;14.13;6.40;;;;;;;2.40;71.46;99377.66;5059104;28;20052;-58
2023/03/06 03:43:41;;;;;;;14.18;6.20;;;;;;;2.42;70.92;99370.84;5056920;28;20126;-58
2023/03/06 03:46:08;;;;;;;13.80;6.35;;;;;;;2.43;71.41;99375.13;5055742;28;20060;-58
2023/03/06 03:48:35;;;;;;;14.30;6.00;;;;;;;2.46;70.63;99364.97;5042610;28;20056;-58
2023/03/06 03:51:07;;;;;;;13.20;6.15;;;;;;;2.48;70.26;99363.31;5044477;28;20078;-56
2023/03/06 03:53:33;;;;;;;11.73;5.40;;;;;;;2.48;71.69;99358.19;5067600;28;20687;-58
2023/03/06 03:56:00;;;;;;;11.90;5.50;;;;;;;2.51;70.80;99360.81;5045829;28;20091;-56
2023/03/06 03:58:27;;;;;;;14.70;6.65;;;;;;;2.52;70.73;99352.31;5043806;28;20091;-56
2023/03/06 04:00:53;;;;;;;11.20;5.35;;;;;;;2.54;71.36;99352.34;5039832;28;20045;-58
2023/03/06 04:03:20;;;;;;;12.55;5.90;;;;;;;2.56;71.17;99346.41;5049812;28;20080;-58
2023/03/06 04:05:47;;;;;;;9.95;5.10;;;;;;;2.58;70.32;99343.91;5061959;28;20068;-56
2023/03/06 04:08:13;;;;;;;14.18;6.22;;;;;;;2.58;71.45;99346.44;5060142;28;20105;-56
2023/03/06 04:10:40;;;;;;;11.75;5.97;;;;;;;2.61;71.03;99338.84;5064214;28;20754;-58
2023/03/06 04:13:06;;;;;;;10.45;5.65;;;;;;;2.61;71.75;99335.41;5065464;28;21555;-57
2023/03/06 04:15:35;;;;;;;12.07;5.45;;;;;;;2.61;71.64;99332.84;5061056;28;20074;-57
2023/03/06 04:18:02;;;;;;;12.57;5.80;;;;;;;2.62;71.24;99337.13;5061030;28;20494;-58
2023/03/06 04:20:29;;;;;;;9.70;5.00;;;;;;;2.63;71.10;99326.09;5064200;28;20105;-56
2023/03/06 04:22:56;;;;;;;10.18;5.43;;;;;;;2.63;71.89;99323.53;5059997;28;20048;-56
2023/03/06 04:25:22;;;;;;;12.13;5.03;;;;;;;2.62;71.12;99319.22;5058881;28;20092;-57
2023/03/06 04:27:49;;;;;;;12.77;5.40;;;;;;;2.64;72.03;99312.47;5063847;28;20775;-58
2023/03/06 04:30:16;;;;;;;8.57;4.78;;;;;;;2.63;70.80;99306.47;5059300;28;20060;-57
2023/03/06 04:32:42;;;;;;;7.32;3.75;;;;;;;2.66;72.09;99311.66;5058571;28;20076;-58
2023/03/06 04:35:09;;;;;;;9.20;4.88;;;;;;;2.67;72.42;99302.28;5059907;28;20044;-54
2023/03/06 04:37:35;;;;;;;10.15;4.63;;;;;;;2.68;71.54;99304.00;5062085;28;20079;-58
2023/03/06 04:40:03;;;;;;;8.27;4.05;;;;;;;2.70;71.33;99299.75;5066338;28;20053;-56
2023/03/06 04:42:30;;;;;;;11.23;4.70;;;;;;;2.73;71.22;99302.38;5061622;28;20118;-56
2023/03/06 04:44:56;;;;;;;11.52;4.20;;;;;;;2.75;71.39;99294.75;5061814;28;20068;-58
2023/03/06 04:47:23;;;;;;;11.27;4.55;;;;;;;2.76;71.92;99281.97;5056277;28;20079;-57
2023/03/06 04:49:49;;;;;;;7.63;4.15;;;;;;;2.78;71.54;99279.44;5062184;28;20210;-57
2023/03/06 04:52:16;;;;;;;7.28;3.75;;;;;;;2.77;72.62;99268.34;5057102;28;20072;-58
2023/03/06 04:54:44;;;;;;;8.27;4.13;;;;;;;2.77;72.96;99260.69;5062663;28;20106;-55
2023/03/06 04:57:12;;;;;;;8.88;3.90;;;;;;;2.79;71.81;99264.13;5062333;28;20041;-58
2023/03/06 04:59:39;;;;;;;11.20;4.78;;;;;;;2.80;73.15;99268.41;5061341;28;20531;-56
2023/03/06 05:02:06;;;;;;;7.25;3.50;;;;;;;2.82;72.05;99265.88;5059388;28;20165;-56
2023/03/06 05:04:32;;;;;;;9.52;4.20;;;;;;;2.83;72.71;99268.47;5063652;28;20052;-56
2023/03/06 05:06:59;;;;;;;9.65;4.55;;;;;;;2.86;73.33;99265.09;5057157;28;20048;-56
2023/03/06 05:09:25;;;;;;;7.43;4.07;;;;;;;2.90;72.84;99260.91;5063023;28;20075;-56
2023/03/06 05:11:52;;;;;;;8.38;3.97;;;;;;;2.92;72.59;99265.19;5060746;28;20072;-56
2023/03/06 05:14:19;;;;;;;9.35;4.50;;;;;;;2.94;72.57;99260.09;5064560;28;20127;-55
2023/03/06 05:16:46;;;;;;;8.10;3.53;;;;;;;2.96;73.34;99263.53;5062820;28;20052;-58
2023/03/06 05:19:12;;;;;;;8.48;4.55;;;;;;;2.98;72.91;99251.63;5063928;28;20049;-57
2023/03/06 05:21:39;;;;;;;8.95;3.90;;;;;;;2.98;72.81;99256.75;5064442;28;20094;-58
2023/03/06 05:24:06;;;;;;;9.98;4.50;;;;;;;2.98;73.56;99246.53;5065656;28;20044;-57
2023/03/06 05:26:33;;;;;;;8.40;3.72;;;;;;;3.01;73.56;99246.53;5065465;28;20041;-58
2023/03/06 05:29:00;;;;;;;8.10;3.60;;;;;;;3.01;73.24;99241.44;5057225;28;20041;-57
2023/03/06 05:31:26;;;;;;;9.52;3.85;;;;;;;3.04;73.61;99241.47;5063424;28;20181;-57
2023/03/06 05:33:53;;;;;;;9.57;4.32;;;;;;;3.04;73.83;99235.53;5060665;28;20073;-58
2023/03/06 05:36:19;;;;;;;8.40;4.03;;;;;;;3.05;73.25;99235.56;5063571;28;20068;-58
2023/03/06 05:38:46;;;;;;;8.82;3.92;;;;;;;3.06;73.37;99234.69;5059058;28;20599;-57
2023/03/06 05:41:13;;;;;;;9.60;4.25;;;;;;;3.07;73.99;99236.41;5058751;28;20057;-55
2023/03/06 05:43:39;;;;;;;9.18;3.95;;;;;;;3.08;73.40;99232.16;5060550;28;20086;-57
2023/03/06 05:46:06;;;;;;;7.45;3.25;;;;;;;3.10;74.38;99229.63;5058866;28;20109;-57
2023/03/06 05:48:34;;;;;;;11.07;4.72;;;;;;;3.11;73.58;99228.78;5059547;28;20099;-56
2023/03/06 05:51:01;;;;;;;9.43;3.95;;;;;;;3.12;73.57;99222.81;5059687;28;20136;-58
2023/03/06 05:53:28;;;;;;;9.02;3.65;;;;;;;3.15;73.50;99228.00;5058079;28;20095;-58
2023/03/06 05:55:58;;;;;;;9.13;3.90;;;;;;;3.18;73.91;99222.91;5066544;28;20068;-58
2023/03/06 05:58:26;;;;;;;8.57;4.10;;;;;;;3.20;73.54;99226.34;5044628;28;20075;-58
2023/03/06 06:00:52;;;;;;;8.55;3.80;;;;;;;3.21;74.08;99212.72;5058873;28;20212;-59
2023/03/06 06:03:19;;;;;;;13.48;4.45;;;;;;;3.22;74.17;99214.44;5060541;28;20535;-59
2023/03/06 06:05:46;;;;;;;7.88;4.00;;;;;;;3.23;73.59;99205.91;5061568;28;20052;-59
2023/03/06 06:08:13;;;;;;;10.20;4.32;;;;;;;3.24;74.39;99189.72;5059920;28;20127;-59
2023/03/06 06:10:39;;;;;;;7.45;4.03;;;;;;;3.24;74.34;99192.28;5060920;28;20427;-59
2023/03/06 06:13:06;;;;;;;8.45;3.83;;;;;;;3.25;73.75;99193.16;5058971;28;20140;-59
2023/03/06 06:15:33;;;;;;;10.30;3.70;;;;;;;3.25;74.30;99185.47;5055842;28;20076;-59
2023/03/06 06:18:00;;;;;;;10.05;3.75;;;;;;;3.25;74.58;99178.66;5061525;28;20075;-59
2023/03/06 06:20:27;;;;;;;8.05;3.58;;;;;;;3.26;74.40;99176.94;5060623;28;20486;-59
2023/03/06 06:22:54;;;;;;;7.82;3.72;;;;;;;3.26;74.41;99169.25;5060244;28;20444;-59
2023/03/06 06:25:20;;;;;;;9.10;3.95;;;;;;;3.26;74.17;99172.69;5061262;28;20140;-59
2023/03/06 06:27:47;;;;;;;8.25;3.60;;;;;;;3.27;74.07;99166.72;5062250;28;20086;-59
2023/03/06 06:30:14;;;;;;;9.93;3.90;;;;;;;3.28;73.93;99167.59;5061244;28;20561;-58
2023/03/06 06:32:41;;;;;;;10.07;4.13;;;;;;;3.30;74.50;99168.47;5063874;28;20049;-59
2023/03/06 06:35:08;;;;;;;8.48;3.95;;;;;;;3.30;74.67;99169.34;5059864;28;20055;-59
2023/03/06 06:37:34;;;;;;;7.15;4.07;;;;;;;3.32;74.68;99164.25;5059923;28;20488;-59
2023/03/06 06:40:01;;;;;;;11.30;4.03;;;;;;;3.32;74.83;99162.53;5062001;28;20384;-59
2023/03/06 06:42:27;;;;;;;7.43;2.78;;;;;;;3.34;75.02;99167.66;5061341;28;20988;-59
2023/03/06 06:45:04;;;;;;;8.55;3.83;;;;;;;3.33;74.34;99161.69;5057477;28;20518;-58
2023/03/06 06:47:31;;;;;;;9.38;3.47;;;;;;;3.36;74.79;99160.88;5058857;28;20397;-56
2023/03/06 06:49:58;;;;;;;7.30;3.60;;;;;;;3.37;74.58;99156.63;5058450;28;20044;-59
2023/03/06 06:52:25;;;;;;;10.15;4.43;;;;;;;3.37;74.85;99148.94;5060100;28;20049;-59
2023/03/06 06:54:52;;;;;;;9.38;4.13;;;;;;;3.39;74.41;99145.56;5055100;28;20072;-59
2023/03/06 06:57:18;;;;;;;12.73;4.15;;;;;;;3.39;75.18;99139.56;5058456;28;20048;-58
2023/03/06 06:59:45;;;;;;;16.67;6.45;;;;;;;3.41;74.52;99138.75;5055710;28;20393;-58
2023/03/06 07:02:14;;;;;;;11.20;5.32;;;;;;;3.43;75.29;99133.63;5055794;28;20385;-58
2023/03/06 07:04:42;;;;;;;9.55;4.68;;;;;;;3.44;74.73;99127.66;5056569;28;20503;-59
2023/03/06 07:07:27;;;;;;;20.20;6.57;;;;;;;3.47;75.21;99132.81;5061174;28;20045;-57
2023/03/06 07:09:54;;;;;;;11.07;5.03;;;;;;;3.49;74.98;99131.16;5058212;28;20067;-59
2023/03/06 07:12:21;;;;;;;12.05;5.07;;;;;;;3.51;74.53;99134.59;5058254;28;20068;-59
2023/03/06 07:14:48;;;;;;;8.88;4.35;;;;;;;3.52;75.20;99131.19;5060620;28;20106;-57
2023/03/06 07:17:14;;;;;;;10.77;4.30;;;;;;;3.56;74.70;99135.50;5062550;28;20054;-59
2023/03/06 07:19:41;;;;;;;12.57;4.70;;;;;;;3.58;75.63;99133.81;5061498;28;20138;-59
2023/03/06 07:22:08;;;;;;;13.25;5.72;;;;;;;3.62;75.05;99133.84;5061902;28;20061;-59
2023/03/06 07:24:34;;;;;;;10.68;5.07;;;;;;;3.64;74.86;99133.03;5064268;28;20044;-58
2023/03/06 07:27:01;;;;;;;27.05;11.70;;;;;;;3.69;75.26;99139.03;5059087;28;20040;-58
2023/03/06 07:29:28;;;;;;;18.77;8.80;;;;;;;3.71;75.02;99133.94;5067450;28;20070;-58
2023/03/06 07:31:54;;;;;;;13.10;7.30;;;;;;;3.75;75.59;99133.13;5065045;28;20102;-59
2023/03/06 07:34:21;;;;;;;14.98;5.70;;;;;;;3.78;75.33;99127.19;5064393;28;20045;-59
2023/03/06 07:36:49;;;;;;;14.38;6.30;;;;;;;3.80;75.90;99136.59;5066725;28;20060;-58
2023/03/06 07:39:16;;;;;;;14.50;6.38;;;;;;;3.86;75.60;99141.78;5061628;28;20133;-58
2023/03/06 07:41:43;;;;;;;9.23;4.57;;;;;;;3.89;75.54;99134.97;5065537;28;20075;-59
2023/03/06 07:44:09;;;;;;;11.98;5.30;;;;;;;3.93;75.55;99135.03;5063142;28;20067;-59
2023/03/06 07:46:36;;;;;;;12.25;5.05;;;;;;;3.96;75.89;99132.47;5065158;28;20044;-59
2023/03/06 07:49:03;;;;;;;8.40;4.50;;;;;;;3.99;76.18;99141.91;5065500;28;20439;-59
2023/03/06 07:51:29;;;;;;;10.77;4.70;;;;;;;4.02;75.11;99136.81;5058604;28;20064;-59
2023/03/06 07:53:56;;;;;;;9.38;3.58;;;;;;;4.03;76.07;99137.66;5060809;28;20072;-60
2023/03/06 07:56:22;;;;;;;10.35;4.30;;;;;;;4.05;75.69;99124.03;5062784;28;20185;-59
2023/03/06 07:58:49;;;;;;;11.13;4.40;;;;;;;4.08;75.91;99131.75;5060985;28;20045;-59
2023/03/06 08:01:19;;;;;;;10.93;5.28;;;;;;;4.10;75.86;99131.75;5059356;28;20127;-58
2023/03/06 08:03:46;;;;;;;10.80;4.97;;;;;;;4.13;75.91;99130.91;5059552;28;20159;-59
2023/03/06 08:06:15;;;;;;;20.77;7.22;;;;;;;4.15;76.01;99124.97;5061808;28;20103;-59
2023/03/06 08:08:45;;;;;;;18.65;6.03;;;;;;;4.19;75.87;99128.41;5060557;28;20052;-60
2023/03/06 08:11:14;;;;;;;18.27;6.65;;;;;;;4.22;76.04;99123.34;5056462;28;20052;-59
2023/03/06 08:13:41;;;;;;;17.08;6.35;;;;;;;4.26;76.12;99122.50;5058746;28;20079;-59
2023/03/06 08:16:08;;;;;;;18.20;6.03;;;;;;;4.27;76.24;99119.09;5063523;28;20442;-59
2023/03/06 08:18:38;;;;;;;16.08;6.22;;;;;;;4.29;76.36;99119.94;5057831;28;20143;-59
2023/03/06 08:21:12;;;;;;;14.90;4.97;;;;;;;4.31;76.17;99125.97;5057520;28;20556;-59
2023/03/06 08:23:39;;;;;;;18.52;6.93;;;;;;;4.34;75.98;99118.28;5059347;28;20051;-59
2023/03/06 08:26:09;;;;;;;13.27;5.43;;;;;;;4.37;76.09;99120.00;5060812;28;20090;-59
2023/03/06 08:28:36;;;;;;;17.73;6.25;;;;;;;4.39;76.03;99120.03;5058594;28;20102;-58
2023/03/06 08:31:08;;;;;;;16.15;5.55;;;;;;;4.42;76.11;99125.19;5057965;28;20181;-59
2023/03/06 08:33:35;;;;;;;11.48;4.80;;;;;;;4.45;75.92;99114.94;5055005;28;20140;-59
2023/03/06 08:36:02;;;;;;;9.20;4.40;;;;;;;4.47;76.31;99114.13;5060780;28;20094;-59
2023/03/06 08:38:29;;;;;;;10.88;4.53;;;;;;;4.49;76.14;99117.53;5059129;28;20051;-60
2023/03/06 08:40:55;;;;;;;12.20;4.68;;;;;;;4.53;75.98;99115.88;5056717;28;20079;-60
2023/03/06 08:43:22;;;;;;;11.48;4.55;;;;;;;4.56;76.66;99123.56;5061379;28;20067;-60
2023/03/06 08:45:53;;;;;;;10.05;4.07;;;;;;;4.58;76.31;99121.88;5063159;28;20052;-59
2023/03/06 08:48:20;;;;;;;9.15;4.40;;;;;;;4.62;76.27;99113.34;5057484;28;20068;-60
2023/03/06 08:50:47;;;;;;;10.73;4.30;;;;;;;4.67;76.21;99109.94;5056641;28;20041;-60
2023/03/06 08:53:14;;;;;;;13.20;4.85;;;;;;;4.71;76.21;99116.81;5058389;28;20087;-60
2023/03/06 08:55:40;;;;;;;10.63;4.32;;;;;;;4.74;76.11;99109.16;5060997;28;20080;-60
2023/03/06 08:58:07;;;;;;;12.40;5.03;;;;;;;4.79;75.99;99112.59;5055084;28;20076;-60
2023/03/06 09:00:36;;;;;;;14.48;5.10;;;;;;;4.85;76.07;99111.75;5055287;28;20084;-59
2023/03/06 09:03:03;;;;;;;10.85;4.53;;;;;;;4.91;76.65;99108.38;5059674;28;20136;-60
2023/03/06 09:05:30;;;;;;;11.80;4.13;;;;;;;4.96;76.15;99101.56;5061780;28;20141;-60
2023/03/06 09:07:57;;;;;;;10.50;4.72;;;;;;;5.04;75.94;99099.03;5063891;28;20644;-59
2023/03/06 09:10:24;;;;;;;36.00;10.88;;;;;;;5.12;75.99;99102.47;5057291;28;20059;-59
2023/03/06 09:12:52;;;;;;;23.30;8.52;;;;;;;5.24;76.65;99102.53;5056326;28;21368;-60
2023/03/06 09:15:21;;;;;;;20.58;7.35;;;;;;;5.35;75.93;99097.44;5058150;28;20508;-60
2023/03/06 09:17:49;;;;;;;23.08;8.30;;;;;;;5.46;76.32;99097.47;5060463;28;20043;-60
2023/03/06 09:20:17;;;;;;;23.30;7.75;;;;;;;5.55;76.56;99085.50;5055516;28;20052;-59
2023/03/06 09:22:44;;;;;;;39.63;11.02;;;;;;;5.65;75.83;99088.09;5059397;28;20036;-60
2023/03/06 09:25:12;;;;;;;39.70;11.00;;;;;;;5.74;75.50;99088.97;5058513;28;20128;-59
2023/03/06 09:27:39;;;;;;;35.58;9.73;;;;;;;5.81;75.63;99082.97;5057426;28;20394;-59
2023/03/06 09:30:07;;;;;;;40.53;9.73;;;;;;;5.90;76.81;99085.56;5055954;28;20052;-60
2023/03/06 09:32:34;;;;;;;33.97;8.63;;;;;;;5.97;75.97;99088.13;5056755;28;20063;-60
2023/03/06 09:35:00;;;;;;;36.88;10.55;;;;;;;6.06;75.41;99083.03;5055878;28;20066;-59
2023/03/06 09:37:27;;;;;;;52.10;12.48;;;;;;;6.15;76.46;99077.88;5050909;28;20684;-60
2023/03/06 09:39:53;;;;;;;33.28;8.77;;;;;;;6.24;76.47;99071.88;5059822;28;20413;-60
2023/03/06 09:42:22;;;;;;;28.50;8.93;;;;;;;6.32;75.59;99074.47;5052296;28;20057;-60
2023/03/06 09:44:53;;;;;;;20.27;7.95;;;;;;;6.40;75.56;99067.59;5063137;28;20167;-58
2023/03/06 09:47:47;;;;;;;26.35;8.75;;;;;;;6.53;76.11;99059.84;5057735;28;20075;-60
2023/03/06 09:50:39;;;;;;;24.92;7.03;;;;;;;6.63;76.18;99058.97;5046938;28;20075;-60
2023/03/06 09:53:36;;;;;;;30.73;9.35;;;;;;;6.76;75.46;99052.03;5056468;28;20536;-60
2023/03/06 09:56:16;;;;;;;39.38;10.45;;;;;;;6.93;75.51;99053.72;5041930;28;20098;-60
2023/03/06 09:58:48;;;;;;;33.65;9.50;;;;;;;7.01;74.75;99053.69;5055822;28;20447;-60
2023/03/06 10:01:22;;;;;;;35.28;8.80;;;;;;;7.07;74.92;99053.66;5054079;28;20072;-59
2023/03/06 10:06:29;;;;;;;30.27;9.07;;;;;;;7.25;74.33;99054.41;5035212;28;20408;-60
2023/03/06 10:09:04;;;;;;;36.42;9.18;;;;;;;7.25;74.20;99047.56;5014078;28;20049;-60
2023/03/06 10:11:44;;;;;;;38.97;9.70;;;;;;;7.25;74.59;99044.13;5012530;28;20041;-60
2023/03/06 10:14:29;;;;;;;12.70;4.45;;;;;;;7.28;73.86;99046.69;5015498;28;20046;-60
2023/03/06 10:16:57;;;;;;;11.20;4.38;;;;;;;7.32;74.31;99044.09;4995370;28;20073;-60
2023/03/06 10:19:32;;;;;;;14.25;5.78;;;;;;;7.42;75.13;99036.28;5004554;28;20073;-60
2023/03/06 10:22:06;;;;;;;18.65;6.53;;;;;;;7.57;74.91;99037.94;5006531;28;20042;-60
2023/03/06 10:24:46;;;;;;;13.65;5.43;;;;;;;7.72;75.26;99032.69;5012016;28;20053;-60
2023/03/06 10:35:20;;;;;;;18.95;6.07;;;;;;;8.27;74.32;99028.78;5057683;28;20743;-60
2023/03/06 10:37:48;;;;;;;16.75;6.55;;;;;;;8.29;73.12;99027.03;4988894;28;20043;-60
2023/03/06 10:40:29;;;;;;;7.18;3.42;;;;;;;8.31;73.36;99020.16;4980897;28;20061;-60
2023/03/06 10:42:56;;;;;;;18.38;7.75;;;;;;;8.33;72.85;99023.53;4979170;28;20116;-60
2023/03/06 10:45:46;;;;;;;18.48;6.95;;;;;;;8.37;72.99;99017.47;4977866;28;20046;-60
2023/03/06 10:48:24;;;;;;;14.73;5.93;;;;;;;8.45;73.74;99020.00;4972564;28;20097;-60
2023/03/06 10:50:53;;;;;;;17.83;6.70;;;;;;;8.51;73.55;99022.50;4975848;28;20046;-60
2023/03/06 10:56:00;;;;;;;8.98;2.88;;;;;;;8.52;72.60;99024.22;5065220;27;20419;-60
2023/03/06 10:58:29;;;;;;;10.60;3.45;;;;;;;8.52;72.78;99024.22;5057879;28;20049;-60
2023/03/06 11:03:52;;;;;;;10.05;3.78;;;;;;;8.48;72.85;99018.22;5022880;28;20416;-60
2023/03/06 11:06:33;;;;;;;8.73;3.25;;;;;;;8.51;72.58;99021.66;4995714;28;20635;-60
2023/03/06 11:11:50;;;;;;;15.13;6.75;;;;;;;8.56;72.80;99004.41;5045430;28;20400;-60
2023/03/06 11:14:21;;;;;;;14.15;5.32;;;;;;;8.57;72.55;99006.13;4995713;28;20049;-60
2023/03/06 11:16:52;;;;;;;11.05;4.75;;;;;;;8.51;72.58;99009.59;4981366;28;20065;-61
2023/03/06 11:19:28;;;;;;;18.10;7.20;;;;;;;8.42;72.36;99012.28;4989537;28;20054;-60
2023/03/06 11:22:17;;;;;;;17.17;6.57;;;;;;;8.34;72.10;99009.75;4988064;28;20066;-60
2023/03/06 11:24:49;;;;;;;13.35;5.88;;;;;;;8.32;71.22;98996.03;4988943;28;20081;-60
2023/03/06 11:27:33;;;;;;;14.90;4.80;;;;;;;8.30;71.82;98995.19;4992599;28;20078;-60
2023/03/06 11:30:06;;;;;;;6.30;3.63;;;;;;;8.29;71.91;99001.22;4993692;28;20136;-60
2023/03/06 11:32:56;;;;;;;11.73;4.15;;;;;;;8.26;72.05;99001.25;4991490;28;20050;-61
2023/03/06 11:35:27;;;;;;;10.27;4.32;;;;;;;8.33;72.07;98997.75;4984211;28;20112;-60
2023/03/06 11:37:59;;;;;;;9.30;5.03;;;;;;;8.35;71.33;98990.84;4980428;28;20082;-60
2023/03/06 11:40:31;;;;;;;27.60;7.40;;;;;;;8.38;71.51;98980.50;4978482;28;20097;-60
2023/03/06 11:45:46;;;;;;;21.83;4.78;;;;;;;8.47;71.88;98990.72;5045080;27;20960;-60
2023/03/06 11:51:03;;;;;;;26.55;6.78;;;;;;;8.63;71.49;98980.25;5086322;27;20397;-60
2023/03/06 11:53:38;;;;;;;9.40;2.92;;;;;;;8.70;71.89;98971.56;5055734;28;20048;-60
2023/03/06 11:56:21;;;;;;;18.48;5.10;;;;;;;8.83;70.52;98966.22;5057927;28;20106;-60
2023/03/06 12:07:34;;;;;;;9.82;4.40;;;;;;;8.92;70.69;98962.69;5014540;28;20876;-60
2023/03/06 12:18:27;;;;;;;4.03;3.47;;;;;;;8.79;69.56;98951.66;5089685;27;20390;-60
2023/03/06 12:21:18;;;;;;;4.13;3.53;;;;;;;8.73;69.84;98943.13;5038134;28;20131;-60
2023/03/06 12:24:20;;;;;;;4.88;4.10;;;;;;;8.74;70.20;98937.09;5059605;28;20567;-60
2023/03/06 12:29:48;;;;;;;6.25;1.48;;;;;;;8.71;69.48;98937.13;5082926;27;20390;-60
2023/03/06 12:38:02;;;;;;;2.20;0.80;;;;;;;8.64;69.01;98917.41;5049351;27;20418;-60
2023/03/06 12:43:52;;;;;;;3.75;1.73;;;;;;;8.56;68.94;98919.25;4996469;28;20405;-60
2023/03/06 12:46:21;;;;;;;2.05;1.27;;;;;;;8.55;69.38;98918.38;4961753;28;20047;-60
2023/03/06 12:49:01;;;;;;;2.55;1.70;;;;;;;8.52;69.04;98914.97;4961570;28;20051;-60